createdAt,value
2023-10-15T00:00:21.053Z,101312.22
2023-10-15T00:02:52.703Z,101310.13
2023-10-15T00:05:27.468Z,101316.00
2023-10-15T00:07:55.259Z,101305.84
2023-10-15T00:10:24.257Z,101304.22
2023-10-15T00:12:52.888Z,101296.66
2023-10-15T00:15:21.346Z,101288.69
2023-10-15T00:17:49.593Z,101265.69
2023-10-15T00:20:19.504Z,101281.03
2023-10-15T00:22:47.639Z,101292.75
2023-10-15T00:25:15.954Z,101289.81
2023-10-15T00:27:43.883Z,101319.31
2023-10-15T00:30:14.540Z,101304.59
2023-10-15T00:32:44.536Z,101306.25
2023-10-15T00:35:13.093Z,101320.59
2023-10-15T00:37:44.675Z,101321.81
2023-10-15T00:40:17.893Z,101326.78
2023-10-15T00:42:48.636Z,101329.78
2023-10-15T00:45:17.065Z,101327.38
2023-10-15T00:48:06.860Z,101325.34
2023-10-15T00:50:45.584Z,101340.97
2023-10-15T00:53:25.486Z,101348.53
2023-10-15T00:55:53.580Z,101349.88
2023-10-15T00:58:33.118Z,101363.44
2023-10-15T01:01:20.105Z,101380.94
2023-10-15T01:03:57.769Z,101348.22
2023-10-15T01:06:36.222Z,101317.44
2023-10-15T01:09:12.330Z,101341.03
2023-10-15T01:11:46.361Z,101338.38
2023-10-15T01:14:14.876Z,101307.19
2023-10-15T01:16:42.380Z,101305.94
2023-10-15T01:19:12.645Z,101322.75
2023-10-15T01:22:04.349Z,101320.13
2023-10-15T01:24:39.285Z,101313.97
2023-10-15T01:27:08.415Z,101319.94
2023-10-15T01:29:45.393Z,101327.19
2023-10-15T01:32:32.856Z,101333.22
2023-10-15T01:35:03.056Z,101340.13
2023-10-15T01:37:30.286Z,101354.00
2023-10-15T01:40:23.292Z,101352.69
2023-10-15T01:42:55.544Z,101338.09
2023-10-15T01:45:39.625Z,101331.91
2023-10-15T01:48:14.289Z,101316.59
2023-10-15T01:51:07.117Z,101306.53
2023-10-15T01:53:40.712Z,101296.09
2023-10-15T01:56:08.463Z,101284.22
2023-10-15T01:58:35.602Z,101325.66
2023-10-15T02:01:33.238Z,101319.69
2023-10-15T02:04:00.661Z,101321.75
2023-10-15T02:06:27.893Z,101334.84
2023-10-15T02:08:56.696Z,101341.72
2023-10-15T02:11:23.887Z,101329.56
2023-10-15T02:13:51.832Z,101329.72
2023-10-15T02:16:26.791Z,101329.97
2023-10-15T02:18:53.911Z,101331.56
2023-10-15T02:21:21.022Z,101325.47
2023-10-15T02:23:52.275Z,101322.31
2023-10-15T02:26:20.347Z,101326.13
2023-10-15T02:28:49.042Z,101320.94
2023-10-15T02:31:21.425Z,101311.47
2023-10-15T02:33:48.891Z,101322.63
2023-10-15T02:36:19.013Z,101337.59
2023-10-15T02:38:58.367Z,101348.53
2023-10-15T02:41:42.041Z,101345.25
2023-10-15T02:44:17.262Z,101350.56
2023-10-15T02:46:51.360Z,101344.53
2023-10-15T02:49:18.687Z,101323.28
2023-10-15T02:51:47.232Z,101333.63
2023-10-15T02:54:20.669Z,101334.44
2023-10-15T02:56:47.791Z,101308.03
2023-10-15T02:59:18.570Z,101318.44
2023-10-15T03:01:48.473Z,101312.88
2023-10-15T03:04:34.355Z,101338.03
2023-10-15T03:07:21.176Z,101336.03
2023-10-15T03:09:53.237Z,101331.19
2023-10-15T03:12:20.421Z,101342.69
2023-10-15T03:14:47.310Z,101356.66
2023-10-15T03:17:26.297Z,101370.00
2023-10-15T03:19:56.334Z,101398.72
2023-10-15T03:22:30.251Z,101350.28
2023-10-15T03:25:00.836Z,101386.94
2023-10-15T03:27:28.865Z,101384.22
2023-10-15T03:29:58.955Z,101350.72
2023-10-15T03:32:33.227Z,101377.25
2023-10-15T03:35:07.579Z,101362.13
2023-10-15T03:37:39.687Z,101315.13
2023-10-15T03:40:15.069Z,101346.53
2023-10-15T03:42:42.388Z,101329.41
2023-10-15T03:45:11.301Z,101323.66
2023-10-15T03:47:48.574Z,101330.50
2023-10-15T03:50:16.553Z,101318.38
2023-10-15T03:52:45.755Z,101309.47
2023-10-15T03:55:13.724Z,101309.13
2023-10-15T03:57:40.754Z,101320.00
2023-10-15T04:00:17.890Z,101317.66
2023-10-15T04:03:02.526Z,101312.41
2023-10-15T04:05:31.375Z,101320.09
2023-10-15T04:07:58.301Z,101317.38
2023-10-15T04:10:25.834Z,101326.91
2023-10-15T04:12:53.510Z,101340.63
2023-10-15T04:15:23.111Z,101332.56
2023-10-15T04:17:50.327Z,101322.31
2023-10-15T04:20:17.804Z,101322.78
2023-10-15T04:22:53.313Z,101327.81
2023-10-15T04:25:27.374Z,101317.09
2023-10-15T04:27:55.755Z,101322.44
2023-10-15T04:30:24.704Z,101324.66
2023-10-15T04:32:52.025Z,101323.91
2023-10-15T04:35:20.457Z,101331.31
2023-10-15T04:37:50.423Z,101340.56
2023-10-15T04:40:24.211Z,101342.22
2023-10-15T04:42:52.901Z,101354.38
2023-10-15T04:45:36.989Z,101370.34
2023-10-15T04:48:09.034Z,101382.22
2023-10-15T04:50:37.657Z,101369.84
2023-10-15T04:53:14.723Z,101354.84
2023-10-15T04:55:42.799Z,101335.28
2023-10-15T04:58:10.786Z,101334.72
2023-10-15T05:00:49.156Z,101334.16
2023-10-15T05:03:17.765Z,101341.59
2023-10-15T05:05:45.135Z,101337.50
2023-10-15T05:08:13.018Z,101344.66
2023-10-15T05:10:52.461Z,101338.00
2023-10-15T05:13:20.818Z,101360.38
2023-10-15T05:15:49.170Z,101362.56
2023-10-15T05:18:16.893Z,101363.00
2023-10-15T05:20:49.292Z,101359.44
2023-10-15T05:23:17.488Z,101376.56
2023-10-15T05:25:44.970Z,101372.53
2023-10-15T05:28:16.243Z,101356.44
2023-10-15T05:30:45.105Z,101357.72
2023-10-15T05:33:12.322Z,101346.16
2023-10-15T05:35:40.529Z,101347.38
2023-10-15T05:38:11.388Z,101334.75
2023-10-15T05:40:39.901Z,101348.81
2023-10-15T05:43:07.331Z,101355.59
2023-10-15T05:45:34.644Z,101345.22
2023-10-15T05:48:02.417Z,101345.19
2023-10-15T05:50:29.800Z,101337.56
2023-10-15T05:52:56.677Z,101338.13
2023-10-15T05:55:23.805Z,101333.28
2023-10-15T05:57:50.805Z,101341.28
2023-10-15T06:00:21.356Z,101335.13
2023-10-15T06:02:49.433Z,101350.94
2023-10-15T06:05:16.404Z,101363.06
2023-10-15T06:07:46.211Z,101369.44
2023-10-15T06:10:13.660Z,101368.91
2023-10-15T06:12:41.722Z,101374.38
2023-10-15T06:15:10.319Z,101386.97
2023-10-15T06:17:37.673Z,101377.88
2023-10-15T06:20:23.208Z,101381.13
2023-10-15T06:22:50.918Z,101384.06
2023-10-15T06:25:25.045Z,101382.25
2023-10-15T06:27:52.939Z,101391.63
2023-10-15T06:30:24.564Z,101409.56
2023-10-15T06:32:54.381Z,101401.00
2023-10-15T06:35:23.544Z,101418.16
2023-10-15T06:37:59.323Z,101419.22
2023-10-15T06:40:28.699Z,101429.59
2023-10-15T06:43:02.716Z,101432.38
2023-10-15T06:45:31.047Z,101442.75
2023-10-15T06:47:58.213Z,101438.03
2023-10-15T06:50:26.992Z,101469.34
2023-10-15T06:52:55.756Z,101460.78
2023-10-15T06:55:23.450Z,101469.66
2023-10-15T06:57:50.692Z,101477.56
2023-10-15T07:00:24.911Z,101489.00
2023-10-15T07:02:55.610Z,101503.19
2023-10-15T07:05:25.497Z,101514.16
2023-10-15T07:07:53.187Z,101504.59
2023-10-15T07:10:20.322Z,101512.91
2023-10-15T07:12:49.512Z,101503.75
2023-10-15T07:15:17.848Z,101503.97
2023-10-15T07:17:46.423Z,101492.59
2023-10-15T07:20:20.041Z,101503.69
2023-10-15T07:22:48.501Z,101504.22
2023-10-15T07:25:16.388Z,101504.00
2023-10-15T07:27:47.124Z,101502.63
2023-10-15T07:30:16.505Z,101509.22
2023-10-15T07:32:44.972Z,101521.88
2023-10-15T07:35:13.920Z,101518.28
2023-10-15T07:37:45.459Z,101512.47
2023-10-15T07:40:23.291Z,101502.25
2023-10-15T07:42:52.229Z,101512.91
2023-10-15T07:45:21.053Z,101510.38
2023-10-15T07:47:48.349Z,101518.38
2023-10-15T07:50:20.218Z,101516.75
2023-10-15T07:52:49.671Z,101504.16
2023-10-15T07:55:18.159Z,101520.53
2023-10-15T07:57:45.371Z,101512.41
2023-10-15T08:00:16.824Z,101522.34
2023-10-15T08:02:46.913Z,101522.34
2023-10-15T08:05:17.676Z,101535.84
2023-10-15T08:07:44.920Z,101534.38
2023-10-15T08:10:12.459Z,101539.38
2023-10-15T08:12:39.341Z,101519.19
2023-10-15T08:15:08.231Z,101534.13
2023-10-15T08:17:36.095Z,101548.72
2023-10-15T08:20:05.719Z,101556.47
2023-10-15T08:22:32.618Z,101545.59
2023-10-15T08:24:59.803Z,101542.81
2023-10-15T08:27:27.626Z,101565.03
2023-10-15T08:29:54.484Z,101568.28
2023-10-15T08:32:21.836Z,101574.16
2023-10-15T08:34:49.684Z,101547.06
2023-10-15T08:37:16.782Z,101544.59
2023-10-15T08:39:43.681Z,101556.25
2023-10-15T08:42:27.648Z,101549.09
2023-10-15T08:44:58.912Z,101559.88
2023-10-15T08:47:27.701Z,101563.19
2023-10-15T08:49:56.723Z,101516.75
2023-10-15T08:52:24.737Z,101557.94
2023-10-15T08:54:52.847Z,101557.25
2023-10-15T08:57:20.033Z,101563.69
2023-10-15T08:59:48.479Z,101561.72
2023-10-15T09:02:16.921Z,101574.34
2023-10-15T09:04:46.952Z,101576.56
2023-10-15T09:07:16.142Z,101615.22
2023-10-15T09:09:43.658Z,101601.13
2023-10-15T09:12:14.459Z,101602.84
2023-10-15T09:14:45.769Z,101592.72
2023-10-15T09:17:18.432Z,101605.97
2023-10-15T09:19:50.033Z,101611.31
2023-10-15T09:22:17.036Z,101619.00
2023-10-15T09:24:44.917Z,101620.97
2023-10-15T09:27:12.580Z,101617.16
2023-10-15T09:29:40.007Z,101626.59
2023-10-15T09:32:07.535Z,101611.16
2023-10-15T09:34:39.012Z,101604.19
2023-10-15T09:37:07.742Z,101628.25
2023-10-15T09:39:40.325Z,101627.13
2023-10-15T09:42:07.119Z,101634.31
2023-10-15T09:44:35.198Z,101614.84
2023-10-15T09:47:05.705Z,101632.22
2023-10-15T09:49:35.090Z,101625.06
2023-10-15T09:52:11.722Z,101649.97
2023-10-15T09:54:44.200Z,101643.78
2023-10-15T09:57:12.560Z,101638.44
2023-10-15T09:59:39.499Z,101583.97
2023-10-15T10:02:13.873Z,101660.56
2023-10-15T10:04:58.051Z,101631.66
2023-10-15T10:08:20.335Z,101646.28
2023-10-15T10:11:04.469Z,101652.53
2023-10-15T10:14:12.564Z,101653.72
2023-10-15T10:16:43.334Z,101657.00
2023-10-15T10:19:11.270Z,101653.94
2023-10-15T10:21:38.240Z,101653.97
2023-10-15T10:24:10.276Z,101660.72
2023-10-15T10:26:41.413Z,101658.66
2023-10-15T10:29:10.637Z,101648.38
2023-10-15T10:31:40.661Z,101626.97
2023-10-15T10:34:07.789Z,101645.03
2023-10-15T10:36:39.313Z,101648.38
2023-10-15T10:39:09.892Z,101648.19
2023-10-15T10:41:42.256Z,101651.47
2023-10-15T10:44:25.181Z,101657.22
2023-10-15T10:46:55.793Z,101656.00
2023-10-15T10:49:35.747Z,101650.13
2023-10-15T10:52:18.856Z,101645.66
2023-10-15T10:54:49.973Z,101637.66
2023-10-15T10:57:21.851Z,101636.03
2023-10-15T10:59:50.508Z,101661.66
2023-10-15T11:02:17.758Z,101654.19
2023-10-15T11:04:45.090Z,101644.59
2023-10-15T11:07:14.630Z,101652.59
2023-10-15T11:09:41.938Z,101658.56
2023-10-15T11:12:13.722Z,101680.00
2023-10-15T11:14:41.908Z,101681.19
2023-10-15T11:17:10.171Z,101681.84
2023-10-15T11:19:39.535Z,101676.88
2023-10-15T11:22:07.042Z,101671.56
2023-10-15T11:24:34.348Z,101665.75
2023-10-15T11:27:02.129Z,101658.69
2023-10-15T11:29:32.870Z,101656.56
2023-10-15T11:32:00.622Z,101661.06
2023-10-15T11:34:33.167Z,101651.91
2023-10-15T11:37:03.076Z,101647.53
2023-10-15T11:39:39.763Z,101653.47
2023-10-15T11:42:10.621Z,101646.91
2023-10-15T11:44:45.341Z,101646.84
2023-10-15T11:47:18.851Z,101651.72
2023-10-15T11:49:46.442Z,101641.03
2023-10-15T11:52:16.647Z,101655.72
2023-10-15T11:54:53.544Z,101651.41
2023-10-15T11:57:28.105Z,101654.16
2023-10-15T11:59:58.019Z,101654.28
2023-10-15T12:02:28.430Z,101651.50
2023-10-15T12:04:59.588Z,101671.75
2023-10-15T12:07:27.429Z,101681.56
2023-10-15T12:09:54.306Z,101666.72
2023-10-15T12:12:21.948Z,101653.69
2023-10-15T12:14:48.761Z,101658.97
2023-10-15T12:17:18.141Z,101653.47
2023-10-15T12:19:46.750Z,101664.53
2023-10-15T12:22:16.964Z,101653.09
2023-10-15T12:24:45.032Z,101596.81
2023-10-15T12:27:12.609Z,101648.56
2023-10-15T12:29:40.815Z,101635.22
2023-10-15T12:32:11.868Z,101630.41
2023-10-15T12:34:39.081Z,101643.59
2023-10-15T12:37:09.440Z,101645.41
2023-10-15T12:39:42.387Z,101647.38
2023-10-15T12:42:12.922Z,101648.09
2023-10-15T12:44:42.870Z,101646.63
2023-10-15T12:47:13.725Z,101649.34
2023-10-15T12:49:41.488Z,101651.13
2023-10-15T12:52:09.908Z,101650.84
2023-10-15T12:54:37.360Z,101651.06
2023-10-15T12:57:05.941Z,101646.91
2023-10-15T12:59:35.803Z,101654.28
2023-10-15T13:02:05.592Z,101651.66
2023-10-15T13:04:32.761Z,101651.56
2023-10-15T13:06:59.813Z,101675.44
2023-10-15T13:09:34.429Z,101697.44
2023-10-15T13:12:03.136Z,101707.28
2023-10-15T13:14:30.149Z,101716.06
2023-10-15T13:16:58.615Z,101728.97
2023-10-15T13:19:25.878Z,101698.47
2023-10-15T13:21:52.895Z,101701.84
2023-10-15T13:24:19.772Z,101691.41
2023-10-15T13:26:49.419Z,101692.91
2023-10-15T13:29:16.346Z,101703.94
2023-10-15T13:31:43.660Z,101707.66
2023-10-15T13:34:10.979Z,101711.09
2023-10-15T13:36:38.169Z,101721.94
2023-10-15T13:39:08.271Z,101720.75
2023-10-15T13:41:37.287Z,101726.09
2023-10-15T13:44:04.298Z,101689.94
2023-10-15T13:46:31.137Z,101717.97
2023-10-15T13:48:58.043Z,101729.25
2023-10-15T13:51:26.427Z,101728.78
2023-10-15T13:53:53.451Z,101713.31
2023-10-15T13:56:21.498Z,101690.41
2023-10-15T13:58:48.581Z,101730.81
2023-10-15T14:01:17.118Z,101729.25
2023-10-15T14:03:45.552Z,101727.47
2023-10-15T14:06:13.330Z,101724.63
2023-10-15T14:08:40.324Z,101745.66
2023-10-15T14:11:08.620Z,101740.56
2023-10-15T14:13:35.665Z,101738.78
2023-10-15T14:16:06.147Z,101731.22
2023-10-15T14:18:33.182Z,101715.81
2023-10-15T14:21:00.149Z,101753.44
2023-10-15T14:23:29.349Z,101774.03
2023-10-15T14:25:56.265Z,101769.00
2023-10-15T14:28:23.298Z,101778.06
2023-10-15T14:30:51.694Z,101776.22
2023-10-15T14:33:18.665Z,101774.56
2023-10-15T14:35:45.662Z,101768.16
2023-10-15T14:38:12.498Z,101776.81
2023-10-15T14:40:40.608Z,101777.69
2023-10-15T14:43:08.657Z,101779.44
2023-10-15T14:45:38.253Z,101780.03
2023-10-15T14:48:09.578Z,101776.88
2023-10-15T14:50:38.155Z,101777.69
2023-10-15T14:53:05.841Z,101742.63
2023-10-15T14:55:45.407Z,101764.63
2023-10-15T14:58:13.716Z,101762.22
2023-10-15T15:00:41.396Z,101772.50
2023-10-15T15:03:08.199Z,101781.66
2023-10-15T15:05:36.514Z,101778.34
2023-10-15T15:08:06.217Z,101777.06
2023-10-15T15:10:36.347Z,101772.13
2023-10-15T15:13:04.015Z,101789.25
2023-10-15T15:15:31.009Z,101789.78
2023-10-15T15:17:58.569Z,101785.81
2023-10-15T15:20:25.810Z,101786.06
2023-10-15T15:22:52.775Z,101790.78
2023-10-15T15:25:22.058Z,101797.25
2023-10-15T15:27:49.306Z,101816.44
2023-10-15T15:30:16.772Z,101817.22
2023-10-15T15:32:47.453Z,101824.03
2023-10-15T15:35:14.823Z,101821.84
2023-10-15T15:37:44.323Z,101812.63
2023-10-15T15:40:13.038Z,101826.28
2023-10-15T15:42:39.968Z,101810.59
2023-10-15T15:45:09.644Z,101785.69
2023-10-15T15:50:04.828Z,101809.75
2023-10-15T15:52:31.776Z,101815.31
2023-10-15T15:54:58.770Z,101808.53
2023-10-15T15:57:25.526Z,101813.84
2023-10-15T15:59:53.500Z,101801.47
2023-10-15T16:02:20.520Z,101807.66
2023-10-15T16:04:47.395Z,101813.31
2023-10-15T16:07:14.515Z,101813.28
2023-10-15T16:09:42.918Z,101826.69
2023-10-15T16:12:10.617Z,101825.91
2023-10-15T16:14:37.477Z,101829.78
2023-10-15T16:17:04.898Z,101828.66
2023-10-15T16:19:32.706Z,101836.16
2023-10-15T16:21:59.753Z,101849.81
2023-10-15T16:24:26.945Z,101866.56
2023-10-15T16:26:55.109Z,101869.91
2023-10-15T16:29:22.211Z,101895.22
2023-10-15T16:31:49.552Z,101879.78
2023-10-15T16:34:16.568Z,101871.03
2023-10-15T16:36:43.698Z,101894.56
2023-10-15T16:39:10.769Z,101884.03
2023-10-15T16:41:37.732Z,101885.16
2023-10-15T16:44:04.870Z,101892.63
2023-10-15T16:46:32.136Z,101893.56
2023-10-15T16:48:59.236Z,101899.38
2023-10-15T16:51:26.996Z,101894.56
2023-10-15T16:53:54.769Z,101881.56
2023-10-15T16:56:22.135Z,101883.69
2023-10-15T16:58:49.347Z,101890.69
2023-10-15T17:01:18.632Z,101894.31
2023-10-15T17:03:45.891Z,101891.28
2023-10-15T17:06:13.453Z,101906.53
2023-10-15T17:08:41.155Z,101913.41
2023-10-15T17:11:08.291Z,101915.13
2023-10-15T17:13:35.392Z,101916.53
2023-10-15T17:16:02.235Z,101921.28
2023-10-15T17:18:29.332Z,101933.47
2023-10-15T17:20:57.195Z,101935.19
2023-10-15T17:23:24.256Z,101932.59
2023-10-15T17:25:51.307Z,101938.56
2023-10-15T17:28:18.655Z,101939.63
2023-10-15T17:30:46.453Z,101948.81
2023-10-15T17:33:13.644Z,101947.72
2023-10-15T17:35:40.891Z,101943.75
2023-10-15T17:38:08.157Z,101940.69
2023-10-15T17:40:35.127Z,101942.06
2023-10-15T17:43:01.977Z,101944.34
2023-10-15T17:45:29.626Z,101942.94
2023-10-15T17:47:59.819Z,101953.50
2023-10-15T17:50:26.938Z,101963.84
2023-10-15T17:52:54.754Z,101950.22
2023-10-15T17:55:22.094Z,101954.72
2023-10-15T17:57:49.094Z,101949.19
2023-10-15T18:00:16.463Z,101958.84
2023-10-15T18:02:44.974Z,101958.81
2023-10-15T18:05:12.004Z,101948.03
2023-10-15T18:07:40.020Z,101942.50
2023-10-15T18:10:07.476Z,101958.03
2023-10-15T18:12:34.410Z,101941.88
2023-10-15T18:15:01.515Z,101956.00
2023-10-15T18:17:29.245Z,101961.03
2023-10-15T18:19:56.203Z,101960.44
2023-10-15T18:22:22.944Z,101970.72
2023-10-15T18:24:49.973Z,101956.91
2023-10-15T18:27:16.866Z,101971.06
2023-10-15T18:29:44.079Z,101970.59
2023-10-15T18:32:12.117Z,101962.31
2023-10-15T18:34:40.158Z,101980.00
2023-10-15T18:37:07.234Z,101962.53
2023-10-15T18:39:34.685Z,101971.41
2023-10-15T18:42:02.014Z,101959.25
2023-10-15T18:44:29.854Z,101957.16
2023-10-15T18:46:57.024Z,101953.88
2023-10-15T18:49:23.987Z,101950.00
2023-10-15T18:51:51.224Z,101959.44
2023-10-15T18:54:18.181Z,101957.22
2023-10-15T18:56:44.959Z,101959.47
2023-10-15T18:59:12.024Z,101967.78
2023-10-15T19:01:39.131Z,101963.88
2023-10-15T19:04:06.392Z,101973.38
2023-10-15T19:06:34.149Z,101972.81
2023-10-15T19:09:01.145Z,101983.34
2023-10-15T19:11:31.124Z,101990.88
2023-10-15T19:13:58.221Z,101973.19
2023-10-15T19:16:25.241Z,101989.50
2023-10-15T19:18:52.460Z,101982.81
2023-10-15T19:21:19.717Z,101991.13
2023-10-15T19:23:46.536Z,101980.94
2023-10-15T19:26:13.469Z,101998.09
2023-10-15T19:28:40.399Z,102000.88
2023-10-15T19:31:09.142Z,101998.38
2023-10-15T19:33:36.400Z,102017.31
2023-10-15T19:36:03.986Z,102014.78
2023-10-15T19:38:33.935Z,102010.34
2023-10-15T19:41:00.698Z,102030.91
2023-10-15T19:43:32.110Z,102025.94
2023-10-15T19:46:00.139Z,102007.84
2023-10-15T19:48:27.841Z,102013.44
2023-10-15T19:50:54.856Z,102002.06
2023-10-15T19:53:28.181Z,102015.69
2023-10-15T19:55:55.502Z,102013.50
2023-10-15T19:58:23.847Z,102008.19
2023-10-15T20:00:51.291Z,102013.44
2023-10-15T20:03:18.550Z,102016.78
2023-10-15T20:05:46.956Z,102025.13
2023-10-15T20:08:16.508Z,102024.56
2023-10-15T20:10:46.583Z,102022.91
2023-10-15T20:13:15.713Z,102027.06
2023-10-15T20:15:44.066Z,102032.63
2023-10-15T20:18:11.326Z,102025.94
2023-10-15T20:20:38.323Z,102025.41
2023-10-15T20:23:05.837Z,102028.75
2023-10-15T20:25:33.573Z,102025.41
2023-10-15T20:28:03.090Z,102032.63
2023-10-15T20:30:33.467Z,102036.22
2023-10-15T20:33:00.598Z,102024.59
2023-10-15T20:35:28.577Z,102027.06
2023-10-15T20:37:56.292Z,102037.94
2023-10-15T20:40:27.298Z,102039.63
2023-10-15T20:42:54.961Z,102036.53
2023-10-15T20:45:25.508Z,102036.56
2023-10-15T20:47:52.879Z,102034.59
2023-10-15T20:50:20.546Z,102035.16
2023-10-15T20:52:49.227Z,102036.28
2023-10-15T20:55:17.090Z,102028.50
2023-10-15T20:57:44.497Z,102020.19
2023-10-15T21:00:14.144Z,102020.75
2023-10-15T21:02:43.930Z,102023.78
2023-10-15T21:05:12.229Z,102027.97
2023-10-15T21:07:44.749Z,102031.00
2023-10-15T21:10:13.260Z,102036.88
2023-10-15T21:12:45.336Z,102031.31
2023-10-15T21:15:13.900Z,102004.94
2023-10-15T21:17:42.060Z,102017.16
2023-10-15T21:20:12.020Z,102009.38
2023-10-15T21:22:41.195Z,102010.75
2023-10-15T21:25:19.177Z,102011.31
2023-10-15T21:27:46.111Z,102012.16
2023-10-15T21:30:13.952Z,102019.66
2023-10-15T21:32:41.460Z,102025.78
2023-10-15T21:35:09.452Z,102016.34
2023-10-15T21:37:41.281Z,102023.56
2023-10-15T21:40:16.520Z,102018.28
2023-10-15T21:42:44.440Z,102016.34
2023-10-15T21:45:13.076Z,102013.00
2023-10-15T21:47:40.972Z,102016.63
2023-10-15T21:50:08.381Z,102012.44
2023-10-15T21:52:36.592Z,102025.22
2023-10-15T21:55:05.992Z,102020.50
2023-10-15T21:57:37.759Z,102003.84
2023-10-15T22:00:06.483Z,102032.44
2023-10-15T22:02:33.786Z,102025.50
2023-10-15T22:05:04.431Z,102023.00
2023-10-15T22:07:33.122Z,102017.44
2023-10-15T22:10:00.238Z,102030.47
2023-10-15T22:12:27.916Z,102016.31
2023-10-15T22:14:54.855Z,102023.22
2023-10-15T22:17:22.198Z,102032.97
2023-10-15T22:19:49.038Z,102033.78
2023-10-15T22:22:18.959Z,102027.97
2023-10-15T22:24:45.899Z,102027.97
2023-10-15T22:27:15.332Z,102033.78
2023-10-15T22:29:45.382Z,102039.06
2023-10-15T22:32:12.645Z,102022.69
2023-10-15T22:34:40.167Z,102041.25
2023-10-15T22:37:07.567Z,102040.16
2023-10-15T22:39:38.098Z,102037.09
2023-10-15T22:42:12.600Z,102039.59
2023-10-15T22:44:46.591Z,102033.19
2023-10-15T22:47:17.135Z,102034.00
2023-10-15T22:49:44.122Z,102036.53
2023-10-15T22:52:11.881Z,102043.47
2023-10-15T22:54:39.021Z,102044.56
2023-10-15T22:57:09.334Z,102034.28
2023-10-15T22:59:38.528Z,102036.53
2023-10-15T23:02:05.396Z,102035.69
2023-10-15T23:04:32.245Z,102037.38
2023-10-15T23:06:59.032Z,102036.84
2023-10-15T23:09:26.620Z,102031.84
2023-10-15T23:11:53.569Z,102044.03
2023-10-15T23:14:22.291Z,102035.97
2023-10-15T23:16:50.111Z,102035.16
2023-10-15T23:19:23.601Z,102009.31
2023-10-15T23:21:56.581Z,102043.50
2023-10-15T23:24:27.034Z,102038.50
2023-10-15T23:26:54.179Z,102027.13
2023-10-15T23:29:25.710Z,102031.84
2023-10-15T23:31:52.743Z,102039.59
2023-10-15T23:34:19.886Z,102045.72
2023-10-15T23:36:46.813Z,102048.50
2023-10-15T23:39:21.001Z,102041.56
2023-10-15T23:41:50.966Z,102033.50
2023-10-15T23:44:22.992Z,102044.88
2023-10-15T23:46:49.958Z,102042.41
2023-10-15T23:49:26.809Z,102031.00
2023-10-15T23:51:53.675Z,102040.44
2023-10-15T23:54:28.242Z,102049.91
2023-10-15T23:56:55.273Z,102054.59
2023-10-15T23:59:23.007Z,102058.78
